Time;durP1;ratioP1;P1;durP2;ratioP2;P2;SDS_P1;SDS_P2;PMS_P1;PMS_P2;Temp;Humidity;BMP_temperature;BMP_pressure;BME280_temperature;BME280_humidity;BME280_pressure;Samples;Min_cycle;Max_cycle;Signal;HPM_P1;HPM_P2
2021/04/16 00:01:34;;;;;;;2.90;2.70;;;9.50;44.80;;;;;;5073203;28;21212;-50
2021/04/16 00:04:01;;;;;;;6.67;3.70;;;9.50;45.00;;;;;;5073840;28;20668;-51
2021/04/16 00:06:29;;;;;;;3.27;2.97;;;9.50;46.40;;;;;;5073181;28;20643;-51
2021/04/16 00:08:56;;;;;;;2.70;2.50;;;9.60;46.10;;;;;;5072880;28;20628;-51
2021/04/16 00:11:23;;;;;;;2.67;2.47;;;9.60;45.80;;;;;;5073179;28;20656;-50
2021/04/16 00:13:50;;;;;;;4.40;2.73;;;9.60;46.30;;;;;;5073577;28;21034;-50
2021/04/16 00:16:19;;;;;;;2.73;2.53;;;9.60;45.90;;;;;;5073132;28;21000;-50
2021/04/16 00:18:45;;;;;;;5.13;3.27;;;9.60;45.30;;;;;;5073186;28;20654;-50
2021/04/16 00:21:12;;;;;;;2.67;2.47;;;9.50;45.10;;;;;;5073244;28;20709;-50
2021/04/16 00:23:40;;;;;;;3.50;3.20;;;9.50;45.20;;;;;;5073322;28;20648;-50
2021/04/16 00:26:07;;;;;;;3.83;3.13;;;9.60;45.20;;;;;;5072752;28;20620;-50
2021/04/16 00:28:34;;;;;;;2.83;2.60;;;9.50;45.10;;;;;;5072926;28;20732;-50
2021/04/16 00:31:02;;;;;;;3.50;2.80;;;9.60;45.20;;;;;;5072956;28;20668;-50
2021/04/16 00:33:29;;;;;;;3.80;3.07;;;9.50;45.10;;;;;;5067095;28;20641;-50
2021/04/16 00:35:55;;;;;;;2.80;2.60;;;9.50;45.00;;;;;;5072910;28;20616;-50
2021/04/16 00:38:22;;;;;;;3.10;2.90;;;9.50;45.10;;;;;;5072411;28;20624;-50
2021/04/16 00:40:51;;;;;;;2.60;2.40;;;9.50;45.20;;;;;;5073020;28;21204;-50
2021/04/16 00:43:19;;;;;;;3.90;2.80;;;9.50;45.30;;;;;;5052953;28;20731;-51
2021/04/16 00:45:46;;;;;;;3.00;2.70;;;9.60;45.50;;;;;;5065397;28;20619;-50
2021/04/16 00:48:21;;;;;;;6.63;3.20;;;9.60;45.50;;;;;;5072640;28;20681;-51
2021/04/16 00:50:48;;;;;;;3.83;3.53;;;9.60;45.50;;;;;;5072783;28;21478;-51
2021/04/16 00:53:16;;;;;;;5.30;3.90;;;9.60;45.30;;;;;;5072667;28;20628;-50
2021/04/16 00:55:42;;;;;;;3.43;2.90;;;9.50;45.30;;;;;;5072625;28;20632;-51
2021/04/16 00:58:10;;;;;;;3.77;3.33;;;9.50;45.50;;;;;;5072444;28;20628;-50
2021/04/16 01:00:37;;;;;;;5.30;3.90;;;9.50;45.60;;;;;;5072579;28;20687;-49
2021/04/16 01:03:04;;;;;;;4.40;3.40;;;9.50;45.60;;;;;;5072447;28;20655;-51
2021/04/16 01:05:31;;;;;;;4.80;3.83;;;9.50;45.60;;;;;;5070871;28;21189;-50
2021/04/16 01:07:58;;;;;;;5.50;3.63;;;9.50;45.60;;;;;;5066061;28;20632;-51
2021/04/16 01:10:25;;;;;;;4.80;4.33;;;9.50;45.80;;;;;;5072273;28;20721;-50
2021/04/16 01:12:52;;;;;;;4.50;4.10;;;9.50;45.90;;;;;;5057023;28;20644;-51
2021/04/16 01:15:27;;;;;;;5.43;4.40;;;9.50;45.90;;;;;;5034425;28;20621;-50
2021/04/16 01:17:54;;;;;;;4.37;3.97;;;9.50;45.90;;;;;;5064821;28;20628;-50
2021/04/16 01:20:22;;;;;;;5.77;4.33;;;9.50;45.70;;;;;;5072235;28;20660;-50
2021/04/16 01:22:52;;;;;;;5.10;3.23;;;9.50;46.10;;;;;;5072011;28;20668;-51
2021/04/16 01:25:20;;;;;;;3.90;3.50;;;9.50;45.70;;;;;;5072326;28;20637;-50
2021/04/16 01:27:47;;;;;;;4.30;3.53;;;9.50;45.90;;;;;;5061568;28;20637;-51
2021/04/16 01:30:15;;;;;;;3.63;3.30;;;9.50;45.80;;;;;;5051809;28;20667;-51
2021/04/16 01:32:42;;;;;;;5.20;3.33;;;9.40;45.90;;;;;;5052306;28;20637;-50
2021/04/16 01:35:11;;;;;;;7.90;3.17;;;9.40;46.10;;;;;;5059841;28;20628;-50
2021/04/16 01:37:37;;;;;;;3.80;3.40;;;9.40;46.20;;;;;;5071441;28;20650;-50
2021/04/16 01:40:06;;;;;;;3.13;2.90;;;9.40;46.30;;;;;;5071407;28;20678;-50
2021/04/16 01:42:33;;;;;;;3.47;3.17;;;9.40;46.30;;;;;;5071852;28;21061;-51
2021/04/16 01:45:00;;;;;;;6.10;3.40;;;9.50;46.50;;;;;;5071747;28;20693;-51
2021/04/16 01:47:27;;;;;;;5.40;3.10;;;9.40;46.20;;;;;;5071390;28;20662;-51
2021/04/16 01:49:54;;;;;;;2.93;2.73;;;9.40;46.60;;;;;;5071331;28;20686;-51
2021/04/16 01:52:23;;;;;;;3.20;2.90;;;9.40;46.00;;;;;;5071851;28;20625;-51
2021/04/16 01:54:51;;;;;;;3.00;2.80;;;9.40;46.10;;;;;;5071475;28;20694;-50
2021/04/16 01:57:19;;;;;;;3.80;3.50;;;9.40;46.10;;;;;;5070860;28;20678;-50
2021/04/16 01:59:50;;;;;;;5.00;3.50;;;9.40;46.20;;;;;;5071292;28;20629;-51
2021/04/16 02:02:22;;;;;;;4.80;4.10;;;9.30;46.30;;;;;;5071143;28;20667;-50
2021/04/16 02:05:04;;;;;;;3.60;3.30;;;9.30;46.40;;;;;;5071282;28;20644;-50
2021/04/16 02:07:31;;;;;;;3.77;3.47;;;9.30;46.60;;;;;;5070937;28;20675;-50
2021/04/16 02:09:57;;;;;;;4.77;4.33;;;9.40;46.70;;;;;;5071798;28;20628;-50
2021/04/16 02:12:24;;;;;;;3.17;2.97;;;9.30;46.60;;;;;;5071358;28;21231;-50
2021/04/16 02:14:52;;;;;;;3.93;3.53;;;9.30;46.60;;;;;;5070971;28;20669;-50
2021/04/16 02:17:20;;;;;;;7.43;4.87;;;9.20;46.80;;;;;;5070834;28;20653;-50
2021/04/16 02:19:47;;;;;;;3.73;3.37;;;9.20;46.80;;;;;;5071142;28;20657;-50
2021/04/16 02:22:15;;;;;;;4.17;3.77;;;9.20;46.90;;;;;;5071599;28;20678;-50
2021/04/16 02:24:41;;;;;;;4.13;3.73;;;9.20;46.90;;;;;;5070635;28;20652;-50
2021/04/16 02:27:08;;;;;;;3.30;3.00;;;9.10;47.00;;;;;;5071195;28;20628;-51
2021/04/16 02:29:35;;;;;;;3.83;3.40;;;9.10;47.10;;;;;;5071173;28;20753;-48
2021/04/16 02:32:02;;;;;;;4.00;2.93;;;9.10;47.20;;;;;;5070853;28;20660;-51
2021/04/16 02:34:29;;;;;;;3.50;3.20;;;9.00;47.30;;;;;;5070874;28;21023;-49
2021/04/16 02:37:01;;;;;;;3.63;3.33;;;9.00;47.50;;;;;;5070759;28;20639;-49
2021/04/16 02:39:28;;;;;;;6.80;3.10;;;8.90;47.60;;;;;;5071157;28;20636;-50
2021/04/16 02:41:55;;;;;;;8.03;3.60;;;8.90;47.60;;;;;;5070956;28;20706;-50
2021/04/16 02:44:22;;;;;;;5.53;4.13;;;8.90;47.60;;;;;;5071112;28;20664;-50
2021/04/16 02:46:49;;;;;;;3.93;3.50;;;8.90;47.80;;;;;;5070612;28;20635;-50
2021/04/16 02:49:17;;;;;;;4.30;3.33;;;8.80;47.80;;;;;;5070941;28;20627;-51
2021/04/16 02:51:44;;;;;;;4.70;3.83;;;8.80;48.00;;;;;;5070761;28;20726;-50
2021/04/16 02:54:10;;;;;;;3.93;3.37;;;8.80;48.20;;;;;;5070462;28;20693;-50
2021/04/16 02:56:37;;;;;;;3.47;3.17;;;8.80;48.20;;;;;;5071119;28;21020;-50
2021/04/16 02:59:04;;;;;;;6.87;3.70;;;8.70;48.30;;;;;;5070330;28;20661;-50
2021/04/16 03:01:31;;;;;;;4.90;4.50;;;8.70;48.40;;;;;;5070966;28;20714;-50
2021/04/16 03:03:57;;;;;;;7.40;4.60;;;8.70;48.60;;;;;;5070388;28;20653;-50
2021/04/16 03:06:25;;;;;;;4.43;4.03;;;8.60;48.80;;;;;;5070661;28;20632;-50
2021/04/16 03:08:52;;;;;;;5.33;3.90;;;8.60;48.90;;;;;;5070397;28;20658;-50
2021/04/16 03:11:19;;;;;;;11.80;4.60;;;8.60;49.00;;;;;;5069293;28;20697;-51
2021/04/16 03:13:45;;;;;;;4.80;4.40;;;8.50;49.10;;;;;;5056990;28;20623;-50
2021/04/16 03:16:12;;;;;;;4.50;4.10;;;8.50;49.40;;;;;;5070012;28;21005;-50
2021/04/16 03:18:39;;;;;;;4.47;4.07;;;8.50;49.40;;;;;;5070654;28;21186;-51
2021/04/16 03:21:06;;;;;;;5.23;4.80;;;8.50;49.70;;;;;;5070303;28;20716;-50
2021/04/16 03:23:33;;;;;;;6.23;4.80;;;8.40;49.70;;;;;;5070114;28;20653;-51
2021/04/16 03:26:00;;;;;;;4.13;3.73;;;8.40;49.90;;;;;;5070614;28;20962;-50
2021/04/16 03:28:27;;;;;;;4.60;4.20;;;8.30;50.10;;;;;;5070525;28;20638;-50
2021/04/16 03:30:54;;;;;;;4.40;4.00;;;8.30;50.20;;;;;;5074225;28;20725;-51
2021/04/16 03:33:21;;;;;;;5.10;3.87;;;8.30;50.30;;;;;;5073821;28;20749;-51
2021/04/16 03:35:48;;;;;;;4.43;4.10;;;8.20;50.90;;;;;;5073957;28;21039;-50
2021/04/16 03:38:15;;;;;;;7.90;5.57;;;8.20;50.60;;;;;;5073979;28;21234;-51
2021/04/16 03:40:42;;;;;;;5.17;4.30;;;8.20;50.70;;;;;;5073835;28;20712;-50
2021/04/16 03:43:09;;;;;;;5.30;4.50;;;8.20;50.90;;;;;;5073692;28;21183;-50
2021/04/16 03:45:36;;;;;;;5.73;5.23;;;8.10;51.00;;;;;;5072579;28;20621;-50
2021/04/16 03:48:03;;;;;;;5.20;4.80;;;8.10;51.30;;;;;;5073631;28;21020;-50
2021/04/16 03:50:33;;;;;;;6.57;5.43;;;8.10;51.50;;;;;;5073615;28;20659;-50
2021/04/16 03:52:59;;;;;;;6.33;5.73;;;8.10;51.60;;;;;;5073769;28;20680;-51
2021/04/16 03:55:28;;;;;;;5.60;5.10;;;8.10;51.80;;;;;;5073304;28;20633;-50
2021/04/16 03:57:55;;;;;;;5.30;4.90;;;8.00;52.00;;;;;;5073287;28;20625;-50
2021/04/16 04:00:23;;;;;;;5.50;5.00;;;8.00;52.40;;;;;;5073682;28;20722;-51
2021/04/16 04:02:50;;;;;;;7.13;5.57;;;8.10;52.60;;;;;;5074004;28;20633;-50
2021/04/16 04:05:17;;;;;;;7.73;6.60;;;8.00;52.60;;;;;;5073293;28;20662;-51
2021/04/16 04:07:44;;;;;;;7.27;4.93;;;8.00;52.80;;;;;;5073158;28;20677;-50
2021/04/16 04:10:11;;;;;;;5.30;4.90;;;8.00;53.10;;;;;;5073775;28;20593;-51
2021/04/16 04:12:38;;;;;;;6.43;5.30;;;8.10;53.40;;;;;;5073446;28;20633;-51
2021/04/16 04:15:07;;;;;;;6.60;5.00;;;8.10;53.60;;;;;;5073212;28;21015;-51
2021/04/16 04:17:35;;;;;;;5.87;5.40;;;8.10;53.70;;;;;;5072838;28;20623;-50
2021/04/16 04:20:01;;;;;;;5.43;4.93;;;8.20;53.80;;;;;;5072847;28;21043;-50
2021/04/16 04:22:28;;;;;;;5.87;5.37;;;8.20;54.00;;;;;;5055455;28;20684;-50
2021/04/16 04:24:55;;;;;;;5.20;4.63;;;8.20;54.10;;;;;;5089037;28;20694;-51
2021/04/16 04:27:21;;;;;;;6.30;5.23;;;8.20;54.20;;;;;;5073655;28;20672;-51
2021/04/16 04:29:48;;;;;;;5.10;4.70;;;8.20;54.20;;;;;;5072756;28;21001;-51
2021/04/16 04:32:16;;;;;;;6.30;5.13;;;8.20;54.20;;;;;;5072428;28;20706;-50
2021/04/16 04:34:42;;;;;;;6.17;5.57;;;8.20;54.40;;;;;;5073072;28;20625;-50
2021/04/16 04:37:11;;;;;;;5.20;4.70;;;8.20;54.50;;;;;;5072935;28;20684;-51
2021/04/16 04:39:40;;;;;;;6.20;5.63;;;8.20;54.60;;;;;;5072811;28;21179;-50
2021/04/16 04:42:07;;;;;;;5.90;5.30;;;8.20;54.70;;;;;;5072140;28;20661;-51
2021/04/16 04:44:34;;;;;;;6.17;5.57;;;8.20;54.90;;;;;;5054534;28;20705;-50
2021/04/16 04:47:01;;;;;;;6.63;6.00;;;8.20;55.10;;;;;;5073002;28;20626;-50
2021/04/16 04:49:29;;;;;;;5.57;5.07;;;8.20;55.30;;;;;;5072221;28;20631;-51
2021/04/16 04:52:12;;;;;;;8.27;5.63;;;8.20;55.40;;;;;;5072212;28;21219;-50
2021/04/16 04:54:39;;;;;;;5.47;4.97;;;8.20;55.50;;;;;;5073018;28;20674;-50
2021/04/16 04:57:06;;;;;;;6.60;5.80;;;8.30;55.70;;;;;;5072816;28;20704;-50
2021/04/16 04:59:33;;;;;;;4.43;4.07;;;8.30;55.70;;;;;;5071899;28;20632;-50
2021/04/16 05:01:59;;;;;;;5.40;4.97;;;8.20;55.60;;;;;;5072302;28;20666;-50
2021/04/16 05:04:26;;;;;;;6.83;5.03;;;8.30;55.80;;;;;;5072236;28;21004;-51
2021/04/16 05:06:54;;;;;;;5.93;5.40;;;8.30;55.70;;;;;;5072622;28;20624;-51
2021/04/16 05:09:20;;;;;;;5.27;4.77;;;8.30;55.70;;;;;;5071044;28;20679;-51
2021/04/16 05:11:47;;;;;;;8.20;7.33;;;8.30;55.70;;;;;;5068886;28;21226;-51
2021/04/16 05:14:14;;;;;;;7.73;6.93;;;8.30;55.60;;;;;;5071881;28;20962;-51
2021/04/16 05:16:40;;;;;;;6.00;5.40;;;8.30;55.60;;;;;;5072368;28;20631;-51
2021/04/16 05:19:07;;;;;;;7.67;5.70;;;8.30;55.90;;;;;;5071696;28;20623;-51
2021/04/16 05:21:37;;;;;;;6.50;5.30;;;8.20;56.10;;;;;;5072056;28;20728;-50
2021/04/16 05:24:05;;;;;;;5.70;5.20;;;8.20;56.40;;;;;;5071529;28;20654;-50
2021/04/16 05:26:32;;;;;;;6.57;6.00;;;8.20;56.60;;;;;;5071748;28;21270;-50
2021/04/16 05:28:59;;;;;;;6.47;5.97;;;8.20;56.60;;;;;;5071075;28;20654;-50
2021/04/16 05:31:25;;;;;;;5.50;5.03;;;8.30;56.70;;;;;;5071119;28;20672;-50
2021/04/16 05:33:52;;;;;;;5.70;5.20;;;8.30;56.80;;;;;;5071399;28;20620;-50
2021/04/16 05:36:19;;;;;;;7.87;6.30;;;8.30;56.80;;;;;;5071055;28;20635;-51
2021/04/16 05:38:46;;;;;;;6.40;5.30;;;8.40;56.90;;;;;;5070918;28;20979;-52
2021/04/16 05:41:13;;;;;;;6.57;4.80;;;8.40;56.80;;;;;;5071599;28;20659;-52
2021/04/16 05:43:40;;;;;;;7.10;5.83;;;8.40;56.80;;;;;;5070749;28;20689;-52
2021/04/16 05:46:07;;;;;;;7.87;5.63;;;8.50;56.80;;;;;;5071419;28;20781;-51
2021/04/16 05:48:34;;;;;;;4.97;4.47;;;8.50;56.60;;;;;;5071127;28;20628;-52
2021/04/16 05:51:01;;;;;;;5.90;5.30;;;8.60;56.80;;;;;;5070079;28;21018;-52
2021/04/16 05:53:27;;;;;;;7.30;5.17;;;8.60;56.20;;;;;;5070833;28;21192;-51
2021/04/16 05:55:55;;;;;;;5.10;4.70;;;8.60;56.10;;;;;;5067357;28;20632;-51
2021/04/16 05:58:23;;;;;;;10.07;5.93;;;8.70;55.90;;;;;;5070369;28;20694;-51
2021/04/16 06:00:50;;;;;;;7.17;5.40;;;8.70;56.00;;;;;;5069822;28;20655;-52
2021/04/16 06:03:17;;;;;;;7.73;5.23;;;8.70;56.00;;;;;;5070443;28;20719;-51
2021/04/16 06:05:44;;;;;;;9.03;5.20;;;8.80;55.90;;;;;;5070070;28;20709;-51
2021/04/16 06:08:11;;;;;;;5.73;5.23;;;8.80;56.00;;;;;;5070409;28;20646;-52
2021/04/16 06:10:37;;;;;;;5.87;5.03;;;8.80;55.90;;;;;;5069567;28;21037;-52
2021/04/16 06:13:04;;;;;;;7.83;6.17;;;8.90;55.70;;;;;;5067982;28;20628;-52
2021/04/16 06:15:32;;;;;;;5.93;5.40;;;8.90;55.50;;;;;;5070428;28;20999;-51
2021/04/16 06:17:59;;;;;;;5.10;4.60;;;8.90;55.20;;;;;;5070092;28;20621;-51
2021/04/16 06:20:26;;;;;;;5.80;5.30;;;8.90;55.00;;;;;;5070528;28;20699;-50
2021/04/16 06:22:54;;;;;;;5.90;4.60;;;8.90;54.90;;;;;;5070419;28;21231;-51
2021/04/16 06:25:22;;;;;;;5.40;4.60;;;8.90;54.60;;;;;;5070004;28;20656;-51
2021/04/16 06:27:48;;;;;;;5.37;4.83;;;8.90;54.60;;;;;;5069941;28;20678;-50
2021/04/16 06:30:17;;;;;;;4.97;4.57;;;8.90;54.50;;;;;;5070119;28;20621;-51
2021/04/16 06:32:45;;;;;;;5.70;5.20;;;8.90;54.40;;;;;;5070152;28;20625;-50
2021/04/16 06:35:12;;;;;;;7.13;4.30;;;9.00;54.40;;;;;;5065746;28;20682;-49
2021/04/16 06:37:39;;;;;;;5.33;4.83;;;9.00;54.20;;;;;;5069984;28;20620;-49
2021/04/16 06:40:07;;;;;;;4.13;3.73;;;9.00;54.20;;;;;;5068642;28;20671;-50
2021/04/16 06:42:34;;;;;;;5.03;4.63;;;9.10;54.20;;;;;;5069521;28;20708;-49
2021/04/16 06:45:05;;;;;;;5.10;4.60;;;9.10;54.20;;;;;;5069416;28;20719;-50
2021/04/16 06:47:35;;;;;;;4.63;3.70;;;9.20;54.10;;;;;;5069959;28;20690;-50
2021/04/16 06:50:03;;;;;;;7.70;4.43;;;9.30;53.70;;;;;;5070255;28;20710;-49
2021/04/16 06:52:32;;;;;;;4.13;3.20;;;9.30;53.40;;;;;;5070226;28;21118;-51
2021/04/16 06:55:03;;;;;;;4.03;3.73;;;9.30;53.10;;;;;;5070244;28;20675;-51
2021/04/16 06:57:35;;;;;;;4.60;4.03;;;9.40;53.10;;;;;;5069658;28;20976;-50
2021/04/16 07:00:07;;;;;;;5.27;4.40;;;9.50;52.50;;;;;;5070181;28;20651;-51
2021/04/16 07:02:38;;;;;;;4.23;3.90;;;9.60;52.20;;;;;;5069648;28;20625;-51
2021/04/16 07:05:09;;;;;;;4.27;3.97;;;9.60;51.90;;;;;;5074037;28;20715;-52
2021/04/16 07:07:38;;;;;;;2.97;2.77;;;9.70;51.70;;;;;;5073953;28;20987;-51
2021/04/16 07:10:09;;;;;;;3.87;3.47;;;9.80;51.50;;;;;;5074112;28;20628;-50
2021/04/16 07:12:35;;;;;;;3.30;3.00;;;9.90;51.00;;;;;;5070638;28;21177;-50
2021/04/16 07:15:07;;;;;;;2.93;2.63;;;10.00;49.80;;;;;;5086432;28;20678;-50
2021/04/16 07:17:38;;;;;;;5.13;3.10;;;10.00;49.50;;;;;;5077896;28;20620;-50
2021/04/16 07:20:07;;;;;;;3.83;3.53;;;10.00;49.30;;;;;;5085367;28;20657;-50
2021/04/16 07:22:38;;;;;;;2.83;2.63;;;10.00;49.10;;;;;;5073664;28;20686;-49
2021/04/16 07:25:12;;;;;;;3.00;2.50;;;10.00;49.40;;;;;;5085154;28;20649;-50
2021/04/16 07:27:44;;;;;;;3.23;2.93;;;10.00;48.80;;;;;;5064476;28;20629;-51
2021/04/16 07:30:26;;;;;;;3.10;2.80;;;10.10;48.80;;;;;;5072995;28;20621;-50
2021/04/16 07:32:52;;;;;;;3.10;2.47;;;10.10;48.70;;;;;;5074282;28;21025;-50
2021/04/16 07:35:24;;;;;;;3.03;2.60;;;10.20;48.70;;;;;;5073247;28;20779;-51
2021/04/16 07:38:01;;;;;;;3.77;2.60;;;10.30;48.40;;;;;;5073528;28;20659;-50
2021/04/16 07:40:29;;;;;;;2.30;2.10;;;10.30;48.00;;;;;;5073994;28;20665;-51
2021/04/16 07:42:56;;;;;;;3.10;2.47;;;10.40;47.80;;;;;;5072265;28;20675;-51
2021/04/16 07:45:42;;;;;;;2.30;2.10;;;10.40;47.60;;;;;;5065596;28;21005;-51
2021/04/16 07:48:33;;;;;;;3.70;2.90;;;10.40;47.50;;;;;;5069315;28;21200;-51
2021/04/16 07:51:03;;;;;;;4.80;2.20;;;10.50;47.60;;;;;;5065996;28;20661;-50
2021/04/16 07:53:34;;;;;;;2.77;2.30;;;10.60;47.30;;;;;;5072219;28;21212;-50
2021/04/16 07:56:06;;;;;;;3.33;3.03;;;10.70;46.70;;;;;;5072938;28;20633;-50
2021/04/16 07:58:32;;;;;;;2.17;1.97;;;10.80;45.80;;;;;;5072323;28;20729;-49
2021/04/16 08:01:09;;;;;;;3.70;1.70;;;10.90;45.60;;;;;;5071524;28;20652;-51
2021/04/16 08:03:43;;;;;;;4.30;2.50;;;10.90;45.30;;;;;;5073427;28;21008;-51
2021/04/16 08:06:26;;;;;;;3.53;2.57;;;10.90;45.50;;;;;;5072938;28;21244;-51
2021/04/16 08:08:53;;;;;;;2.10;1.53;;;11.00;45.30;;;;;;5072708;28;20678;-51
2021/04/16 08:11:24;;;;;;;2.43;2.20;;;11.10;45.20;;;;;;5072560;28;20653;-51
2021/04/16 08:13:56;;;;;;;3.13;2.10;;;11.10;45.00;;;;;;5068178;28;21235;-51
2021/04/16 08:16:25;;;;;;;3.13;2.17;;;11.10;45.10;;;;;;5072464;28;20676;-50
2021/04/16 08:19:04;;;;;;;4.70;2.77;;;11.10;45.00;;;;;;5072869;28;20633;-51
2021/04/16 08:21:35;;;;;;;1.87;1.77;;;11.10;44.70;;;;;;5072594;28;21238;-51
2021/04/16 08:24:05;;;;;;;2.20;2.10;;;11.00;44.70;;;;;;5072093;28;20678;-51
2021/04/16 08:26:40;;;;;;;2.17;1.87;;;11.00;45.00;;;;;;5077396;28;20628;-50
2021/04/16 08:29:08;;;;;;;1.93;1.70;;;11.10;45.40;;;;;;5092342;28;20753;-52
2021/04/16 08:31:38;;;;;;;2.07;1.87;;;11.20;45.40;;;;;;5076451;28;20704;-52
2021/04/16 08:34:07;;;;;;;2.30;2.10;;;11.30;45.10;;;;;;5072685;28;20668;-52
2021/04/16 08:36:35;;;;;;;2.47;2.27;;;11.40;44.80;;;;;;5069138;28;20613;-52
2021/04/16 08:39:07;;;;;;;5.37;2.30;;;11.40;44.10;;;;;;5071668;28;20620;-52
2021/04/16 08:41:49;;;;;;;2.30;2.07;;;11.50;43.80;;;;;;5087259;28;20657;-52
2021/04/16 08:44:15;;;;;;;1.90;1.80;;;11.50;43.70;;;;;;5089331;28;21247;-52
2021/04/16 08:46:43;;;;;;;2.37;1.97;;;11.50;43.70;;;;;;5072473;28;20621;-52
2021/04/16 08:49:11;;;;;;;2.13;2.00;;;11.60;43.20;;;;;;5069290;28;20637;-52
2021/04/16 08:51:41;;;;;;;4.77;1.87;;;11.70;43.20;;;;;;5061927;28;20699;-51
2021/04/16 08:54:14;;;;;;;2.63;1.80;;;11.80;43.00;;;;;;5073388;28;20733;-52
2021/04/16 08:56:47;;;;;;;2.80;2.60;;;11.80;42.50;;;;;;5071866;28;20621;-51
2021/04/16 08:59:14;;;;;;;2.00;1.90;;;11.80;42.50;;;;;;5071138;28;20634;-51
2021/04/16 09:01:47;;;;;;;3.20;2.07;;;11.90;42.40;;;;;;5071806;28;21009;-52
2021/04/16 09:04:18;;;;;;;3.83;2.00;;;11.90;42.40;;;;;;5072280;28;20625;-52
2021/04/16 09:06:49;;;;;;;2.90;2.67;;;12.00;42.20;;;;;;5071949;28;20694;-50
2021/04/16 09:09:44;;;;;;;4.60;2.23;;;12.10;42.00;;;;;;5071835;28;20679;-55
2021/04/16 09:12:11;;;;;;;4.07;1.90;;;12.20;42.00;;;;;;5071096;28;20726;-49
2021/04/16 09:14:55;;;;;;;2.20;1.60;;;12.30;41.80;;;;;;5070821;28;20621;-51
2021/04/16 09:17:50;;;;;;;2.40;2.03;;;12.40;41.80;;;;;;5069694;28;20628;-51
2021/04/16 09:20:17;;;;;;;2.57;2.10;;;12.60;41.40;;;;;;5070488;28;20737;-51
2021/04/16 09:22:45;;;;;;;5.67;2.30;;;12.70;40.50;;;;;;5071145;28;20621;-51
2021/04/16 09:25:47;;;;;;;4.10;2.20;;;12.80;40.20;;;;;;5054607;28;21202;-52
2021/04/16 09:28:51;;;;;;;2.30;2.10;;;12.90;39.90;;;;;;5068341;28;20663;-51
2021/04/16 09:31:53;;;;;;;2.10;1.77;;;13.00;39.70;;;;;;5062114;28;20653;-50
2021/04/16 09:34:29;;;;;;;2.47;2.10;;;13.00;39.40;;;;;;5062542;28;20617;-50
2021/04/16 09:37:16;;;;;;;2.00;1.90;;;12.90;38.90;;;;;;5070595;28;20624;-52
2021/04/16 09:39:58;;;;;;;2.60;1.87;;;12.80;38.80;;;;;;5069940;28;20631;-52
2021/04/16 09:42:34;;;;;;;1.80;1.70;;;12.80;39.10;;;;;;5064964;28;20652;-51
2021/04/16 09:45:01;;;;;;;2.13;1.70;;;12.80;39.30;;;;;;5068178;28;20759;-53
2021/04/16 09:47:59;;;;;;;2.60;2.40;;;12.70;39.20;;;;;;5069670;28;20690;-50
2021/04/16 09:50:32;;;;;;;2.63;1.87;;;12.80;38.90;;;;;;5046367;28;20657;-51
2021/04/16 09:53:13;;;;;;;2.83;2.17;;;12.80;38.50;;;;;;5070554;28;20722;-52
2021/04/16 09:56:13;;;;;;;1.80;1.70;;;12.90;39.00;;;;;;5069731;28;20621;-53
2021/04/16 09:59:27;;;;;;;1.70;1.60;;;13.20;38.50;;;;;;5064651;28;20633;-51
2021/04/16 10:02:17;;;;;;;1.43;1.33;;;13.50;37.70;;;;;;5056124;28;20664;-51
2021/04/16 10:04:47;;;;;;;3.20;1.77;;;13.70;36.90;;;;;;5070560;28;20664;-52
2021/04/16 10:07:14;;;;;;;4.20;1.80;;;13.80;36.70;;;;;;5069722;28;20625;-51
2021/04/16 10:09:41;;;;;;;2.10;1.43;;;13.70;36.60;;;;;;5070398;28;20667;-51
2021/04/16 10:12:12;;;;;;;3.13;1.97;;;13.60;36.20;;;;;;5070361;28;20648;-51
2021/04/16 10:14:40;;;;;;;2.90;2.57;;;13.50;36.10;;;;;;5074467;28;20621;-51
2021/04/16 10:17:12;;;;;;;5.17;2.10;;;13.30;36.30;;;;;;5071677;28;20986;-52
2021/04/16 10:19:40;;;;;;;1.63;1.53;;;13.20;36.20;;;;;;5071146;28;20633;-51
2021/04/16 10:22:11;;;;;;;1.63;1.53;;;13.10;36.50;;;;;;5075562;28;20665;-51
2021/04/16 12:39:00;;;;;;;2.70;2.27;;;14.10;35.10;;;;;;4990565;28;20674;-52
2021/04/16 12:41:29;;;;;;;3.70;1.63;;;14.10;34.80;;;;;;5066697;28;20645;-52
2021/04/16 12:43:57;;;;;;;1.80;1.70;;;14.00;34.90;;;;;;5071554;28;20621;-52
2021/04/16 12:46:24;;;;;;;3.03;1.47;;;14.00;35.10;;;;;;5083811;28;21014;-52
2021/04/16 12:48:51;;;;;;;1.70;1.47;;;14.00;35.20;;;;;;5079421;28;20635;-53
2021/04/16 12:51:18;;;;;;;1.80;1.60;;;14.10;35.30;;;;;;5092602;28;21019;-52
2021/04/16 12:53:45;;;;;;;1.50;1.40;;;14.10;35.20;;;;;;5092752;28;20833;-52
2021/04/16 12:56:14;;;;;;;2.20;2.00;;;14.20;35.10;;;;;;5071799;28;20984;-51
2021/04/16 12:58:42;;;;;;;2.07;1.20;;;14.30;35.00;;;;;;5077638;28;20633;-51
2021/04/16 13:01:11;;;;;;;1.97;1.20;;;14.40;35.30;;;;;;5072266;28;20707;-51
2021/04/16 13:03:41;;;;;;;2.00;1.50;;;14.50;35.00;;;;;;5071472;28;20649;-51
2021/04/16 13:06:19;;;;;;;2.33;2.10;;;14.70;34.80;;;;;;5071064;28;20649;-52
2021/04/16 13:08:46;;;;;;;3.03;1.57;;;14.80;34.00;;;;;;5053716;28;21012;-51
2021/04/16 13:11:13;;;;;;;5.00;2.27;;;14.70;34.10;;;;;;5054304;28;20653;-50
2021/04/16 13:13:40;;;;;;;1.83;1.40;;;14.50;34.50;;;;;;5071647;28;20782;-53
2021/04/16 13:16:07;;;;;;;1.93;1.73;;;14.30;34.80;;;;;;5072238;28;21022;-51
2021/04/16 13:18:36;;;;;;;3.20;1.77;;;14.20;35.40;;;;;;5053872;28;20633;-53
2021/04/16 13:21:05;;;;;;;2.03;1.83;;;14.00;35.60;;;;;;5071252;28;20665;-54
2021/04/16 13:23:32;;;;;;;1.93;1.67;;;14.00;35.90;;;;;;5071877;28;20647;-53
2021/04/16 13:25:59;;;;;;;1.93;1.60;;;14.00;36.20;;;;;;5070822;28;21198;-51
2021/04/16 13:28:29;;;;;;;3.83;1.73;;;13.90;36.50;;;;;;5052619;28;21204;-52
2021/04/16 13:30:56;;;;;;;2.20;1.73;;;13.80;36.80;;;;;;5032450;28;20714;-51
2021/04/16 13:33:23;;;;;;;2.60;1.87;;;13.70;37.10;;;;;;5071339;28;20629;-52
2021/04/16 13:35:59;;;;;;;2.80;2.60;;;13.60;37.60;;;;;;5071590;28;20670;-51
2021/04/16 13:38:28;;;;;;;1.93;1.60;;;13.60;38.40;;;;;;5070522;28;20633;-51
2021/04/16 13:40:55;;;;;;;3.80;1.83;;;13.60;38.90;;;;;;5071236;28;20661;-51
2021/04/16 13:43:22;;;;;;;2.10;1.83;;;13.60;39.60;;;;;;5053114;28;21006;-51
2021/04/16 13:45:49;;;;;;;1.90;1.60;;;13.60;40.10;;;;;;5077707;28;20695;-53
2021/04/16 13:48:16;;;;;;;1.60;1.50;;;13.60;40.10;;;;;;5070929;28;21205;-51
2021/04/16 13:50:43;;;;;;;2.40;2.20;;;13.60;40.60;;;;;;5052959;28;20645;-51
2021/04/16 13:53:11;;;;;;;2.23;1.60;;;13.70;40.80;;;;;;5071948;28;20999;-51
2021/04/16 13:55:39;;;;;;;2.57;1.80;;;13.70;40.40;;;;;;5070730;28;20629;-52
2021/04/16 13:58:05;;;;;;;1.80;1.70;;;13.70;40.10;;;;;;5069533;28;20676;-53
2021/04/16 14:00:35;;;;;;;2.87;1.50;;;13.70;40.10;;;;;;5057237;28;20658;-53
2021/04/16 14:03:04;;;;;;;2.20;2.00;;;13.70;40.20;;;;;;5053012;28;20618;-51
2021/04/16 14:05:31;;;;;;;3.27;1.90;;;13.70;39.80;;;;;;5053847;28;20714;-52
2021/04/16 14:08:00;;;;;;;3.23;2.07;;;13.70;39.80;;;;;;5088201;28;20670;-52
2021/04/16 14:10:29;;;;;;;3.97;2.40;;;13.70;39.70;;;;;;5056366;28;20653;-52
2021/04/16 14:12:55;;;;;;;2.47;2.27;;;13.70;39.40;;;;;;5070438;28;20617;-53
2021/04/16 14:15:22;;;;;;;3.37;2.37;;;13.70;40.00;;;;;;5070639;28;20683;-52
2021/04/16 14:17:51;;;;;;;2.53;2.33;;;13.70;40.20;;;;;;5071168;28;20675;-51
2021/04/16 14:20:22;;;;;;;3.50;2.33;;;13.70;40.30;;;;;;5076224;28;20653;-53
2021/04/16 14:22:50;;;;;;;2.50;1.77;;;13.60;40.20;;;;;;5071490;28;20628;-53
2021/04/16 14:25:21;;;;;;;4.30;2.33;;;13.60;39.80;;;;;;5060440;28;20620;-51
2021/04/16 14:27:49;;;;;;;4.13;2.07;;;13.60;39.90;;;;;;5069415;28;20629;-51
2021/04/16 14:30:17;;;;;;;2.67;1.77;;;13.60;40.00;;;;;;5070471;28;20631;-50
2021/04/16 14:32:48;;;;;;;1.40;1.30;;;13.50;39.90;;;;;;5083288;28;20629;-52
2021/04/16 14:35:15;;;;;;;2.20;1.70;;;13.40;40.20;;;;;;5051140;28;20665;-51
2021/04/16 14:37:42;;;;;;;3.40;1.63;;;13.40;40.40;;;;;;5070742;28;21188;-52
2021/04/16 14:40:09;;;;;;;3.60;2.60;;;13.20;40.60;;;;;;5075963;28;20628;-54
2021/04/16 14:42:37;;;;;;;3.43;2.43;;;13.10;40.90;;;;;;5070573;28;20996;-52
2021/04/16 14:45:07;;;;;;;4.83;2.03;;;13.10;41.00;;;;;;5068584;28;20685;-51
2021/04/16 14:47:34;;;;;;;1.90;1.70;;;13.10;41.00;;;;;;5069540;28;21016;-51
2021/04/16 14:50:01;;;;;;;4.90;1.60;;;13.10;40.70;;;;;;5070014;28;21030;-51
2021/04/16 14:52:28;;;;;;;2.20;1.77;;;13.30;40.80;;;;;;5051535;28;20632;-50
2021/04/16 14:54:56;;;;;;;2.70;1.80;;;13.30;40.40;;;;;;5069944;28;20662;-51
2021/04/16 14:57:24;;;;;;;2.40;1.37;;;13.40;40.40;;;;;;5077432;28;20673;-52
2021/04/16 14:59:51;;;;;;;1.73;1.63;;;13.40;39.90;;;;;;5070282;28;20675;-52
2021/04/16 15:02:19;;;;;;;2.37;2.00;;;13.40;39.90;;;;;;5071072;28;20654;-51
2021/04/16 15:04:46;;;;;;;3.30;1.53;;;13.40;40.00;;;;;;5061360;28;20748;-52
2021/04/16 15:07:13;;;;;;;2.20;1.50;;;13.40;40.20;;;;;;5072114;28;20729;-52
2021/04/16 15:09:45;;;;;;;1.77;1.67;;;13.40;40.50;;;;;;5069636;28;20628;-52
2021/04/16 15:12:14;;;;;;;1.73;1.60;;;13.30;40.10;;;;;;5070782;28;20982;-52
2021/04/16 15:14:44;;;;;;;1.60;1.50;;;13.30;40.00;;;;;;5072086;28;20635;-51
2021/04/16 15:17:11;;;;;;;2.30;1.40;;;13.30;39.50;;;;;;5067850;28;20628;-53
2021/04/16 15:19:40;;;;;;;1.40;1.13;;;13.30;39.30;;;;;;5062893;28;21238;-53